sensor_id;sensor_type;location;lat;lon;timestamp;temperature;humidity
16674;DHT22;8450;52.654;10.326;2023-04-03T05:58:50;-2.30;99.90
16674;DHT22;8450;52.654;10.326;2023-04-03T06:01:16;-2.30;99.90
16674;DHT22;8450;52.654;10.326;2023-04-03T06:03:42;-2.30;99.90
16674;DHT22;8450;52.654;10.326;2023-04-03T06:06:13;-2.30;99.90
16674;DHT22;8450;52.654;10.326;2023-04-03T06:08:39;-2.30;99.90
16674;DHT22;8450;52.654;10.326;2023-04-03T06:11:04;-2.30;99.90
16674;DHT22;8450;52.654;10.326;2023-04-03T06:13:30;-2.20;99.90
16674;DHT22;8450;52.654;10.326;2023-04-03T06:15:56;-2.20;99.90
16674;DHT22;8450;52.654;10.326;2023-04-03T06:18:22;-2.20;99.90
16674;DHT22;8450;52.654;10.326;2023-04-03T06:20:48;-2.10;99.90
16674;DHT22;8450;52.654;10.326;2023-04-03T06:23:13;-2.10;99.90
16674;DHT22;8450;52.654;10.326;2023-04-03T06:25:39;-2.10;99.90
16674;DHT22;8450;52.654;10.326;2023-04-03T06:28:05;-2.10;99.90
16674;DHT22;8450;52.654;10.326;2023-04-03T06:30:33;-2.00;99.90
16674;DHT22;8450;52.654;10.326;2023-04-03T06:32:58;-2.00;99.90
16674;DHT22;8450;52.654;10.326;2023-04-03T06:35:24;-1.90;99.90
16674;DHT22;8450;52.654;10.326;2023-04-03T06:37:50;-1.90;99.90
16674;DHT22;8450;52.654;10.326;2023-04-03T06:40:21;-1.80;99.90
16674;DHT22;8450;52.654;10.326;2023-04-03T06:42:47;-1.80;99.90
16674;DHT22;8450;52.654;10.326;2023-04-03T06:45:12;-1.80;99.90
16674;DHT22;8450;52.654;10.326;2023-04-03T06:47:38;-1.70;99.90
16674;DHT22;8450;52.654;10.326;2023-04-03T06:50:04;-1.60;99.90
16674;DHT22;8450;52.654;10.326;2023-04-03T06:52:29;-1.60;99.90
16674;DHT22;8450;52.654;10.326;2023-04-03T06:54:56;-1.50;99.90
16674;DHT22;8450;52.654;10.326;2023-04-03T06:57:23;-1.50;99.90
16674;DHT22;8450;52.654;10.326;2023-04-03T06:59:50;-1.40;99.90
16674;DHT22;8450;52.654;10.326;2023-04-03T07:02:15;-1.40;99.90
16674;DHT22;8450;52.654;10.326;2023-04-03T07:04:41;-1.30;99.90
16674;DHT22;8450;52.654;10.326;2023-04-03T07:07:07;-1.20;99.90
16674;DHT22;8450;52.654;10.326;2023-04-03T07:09:32;-1.10;99.90
16674;DHT22;8450;52.654;10.326;2023-04-03T07:11:58;-1.00;99.90
16674;DHT22;8450;52.654;10.326;2023-04-03T07:14:23;-0.90;99.90
16674;DHT22;8450;52.654;10.326;2023-04-03T07:16:49;-0.80;99.90
16674;DHT22;8450;52.654;10.326;2023-04-03T07:19:15;-0.70;99.90
16674;DHT22;8450;52.654;10.326;2023-04-03T07:21:40;-0.60;99.90
16674;DHT22;8450;52.654;10.326;2023-04-03T07:24:07;-0.40;99.90
16674;DHT22;8450;52.654;10.326;2023-04-03T07:26:33;-0.30;99.90
16674;DHT22;8450;52.654;10.326;2023-04-03T07:28:58;-0.10;99.90
16674;DHT22;8450;52.654;10.326;2023-04-03T07:31:25;0.10;99.90
16674;DHT22;8450;52.654;10.326;2023-04-03T07:33:50;0.30;99.90
16674;DHT22;8450;52.654;10.326;2023-04-03T07:36:19;0.50;99.90
16674;DHT22;8450;52.654;10.326;2023-04-03T07:38:45;0.80;99.90
16674;DHT22;8450;52.654;10.326;2023-04-03T07:41:15;1.00;99.90
16674;DHT22;8450;52.654;10.326;2023-04-03T07:43:43;1.30;99.90
16674;DHT22;8450;52.654;10.326;2023-04-03T07:46:08;1.40;99.90
16674;DHT22;8450;52.654;10.326;2023-04-03T07:48:34;1.60;99.90
16674;DHT22;8450;52.654;10.326;2023-04-03T07:51:01;1.80;99.90
16674;DHT22;8450;52.654;10.326;2023-04-03T07:53:27;2.10;99.90
16674;DHT22;8450;52.654;10.326;2023-04-03T07:55:53;2.20;99.90
16674;DHT22;8450;52.654;10.326;2023-04-03T07:58:22;2.40;99.90
16674;DHT22;8450;52.654;10.326;2023-04-03T08:00:47;2.50;99.90
16674;DHT22;8450;52.654;10.326;2023-04-03T08:03:13;2.70;99.90
16674;DHT22;8450;52.654;10.326;2023-04-03T08:05:41;3.00;99.90
16674;DHT22;8450;52.654;10.326;2023-04-03T08:08:07;3.10;99.90
16674;DHT22;8450;52.654;10.326;2023-04-03T08:10:33;3.20;99.90
16674;DHT22;8450;52.654;10.326;2023-04-03T08:13:00;3.50;99.90
16674;DHT22;8450;52.654;10.326;2023-04-03T08:15:25;3.70;99.90
16674;DHT22;8450;52.654;10.326;2023-04-03T08:17:52;3.80;99.90
16674;DHT22;8450;52.654;10.326;2023-04-03T08:20:18;3.90;99.90
16674;DHT22;8450;52.654;10.326;2023-04-03T08:22:43;4.20;99.90
16674;DHT22;8450;52.654;10.326;2023-04-03T08:25:09;4.20;99.90
16674;DHT22;8450;52.654;10.326;2023-04-03T08:27:35;4.50;99.90
16674;DHT22;8450;52.654;10.326;2023-04-03T08:30:00;4.70;99.90
16674;DHT22;8450;52.654;10.326;2023-04-03T08:32:26;4.80;99.90
16674;DHT22;8450;52.654;10.326;2023-04-03T08:34:52;4.80;99.90
16674;DHT22;8450;52.654;10.326;2023-04-03T08:37:18;5.10;99.90
16674;DHT22;8450;52.654;10.326;2023-04-03T08:39:44;5.40;99.90
16674;DHT22;8450;52.654;10.326;2023-04-03T08:42:46;5.60;99.90
16674;DHT22;8450;52.654;10.326;2023-04-03T08:45:40;5.80;99.90
16674;DHT22;8450;52.654;10.326;2023-04-03T08:48:14;6.10;99.90
16674;DHT22;8450;52.654;10.326;2023-04-03T08:50:43;6.30;99.90
16674;DHT22;8450;52.654;10.326;2023-04-03T08:53:17;6.40;99.90
16674;DHT22;8450;52.654;10.326;2023-04-03T08:55:46;6.40;99.90
16674;DHT22;8450;52.654;10.326;2023-04-03T09:01:01;6.40;99.90
16674;DHT22;8450;52.654;10.326;2023-04-03T09:03:31;6.80;99.90
16674;DHT22;8450;52.654;10.326;2023-04-03T09:06:12;7.10;99.90
16674;DHT22;8450;52.654;10.326;2023-04-03T09:09:02;7.40;99.90
16674;DHT22;8450;52.654;10.326;2023-04-03T09:14:51;7.90;99.90
16674;DHT22;8450;52.654;10.326;2023-04-03T09:17:26;8.20;99.90
16674;DHT22;8450;52.654;10.326;2023-04-03T09:22:34;8.60;99.90
16674;DHT22;8450;52.654;10.326;2023-04-03T09:25:17;8.70;99.90
16674;DHT22;8450;52.654;10.326;2023-04-03T09:27:45;8.90;99.90
16674;DHT22;8450;52.654;10.326;2023-04-03T09:30:23;8.60;99.90
16674;DHT22;8450;52.654;10.326;2023-04-03T09:32:52;8.60;99.90
16674;DHT22;8450;52.654;10.326;2023-04-03T09:35:33;8.80;99.90
16674;DHT22;8450;52.654;10.326;2023-04-03T09:40:41;8.90;99.90
16674;DHT22;8450;52.654;10.326;2023-04-03T09:43:23;9.00;99.90
16674;DHT22;8450;52.654;10.326;2023-04-03T09:45:50;9.10;99.90
16674;DHT22;8450;52.654;10.326;2023-04-03T09:48:22;9.10;99.90
16674;DHT22;8450;52.654;10.326;2023-04-03T09:53:36;8.90;99.90
16674;DHT22;8450;52.654;10.326;2023-04-03T09:58:46;8.50;99.90
16674;DHT22;8450;52.654;10.326;2023-04-03T10:01:32;8.50;99.90
16674;DHT22;8450;52.654;10.326;2023-04-03T10:06:34;8.60;99.90
16674;DHT22;8450;52.654;10.326;2023-04-03T10:09:28;8.60;99.90
16674;DHT22;8450;52.654;10.326;2023-04-03T10:12:05;8.80;99.90
16674;DHT22;8450;52.654;10.326;2023-04-03T10:14:57;9.10;99.90
16674;DHT22;8450;52.654;10.326;2023-04-03T10:20:26;9.50;99.90
16674;DHT22;8450;52.654;10.326;2023-04-03T10:23:09;9.80;99.90
16674;DHT22;8450;52.654;10.326;2023-04-03T10:31:31;10.30;99.90
16674;DHT22;8450;52.654;10.326;2023-04-03T10:34:24;10.30;99.90
16674;DHT22;8450;52.654;10.326;2023-04-03T10:39:46;9.90;99.90
16674;DHT22;8450;52.654;10.326;2023-04-03T10:42:37;9.60;99.90
16674;DHT22;8450;52.654;10.326;2023-04-03T10:45:33;9.30;99.90
16674;DHT22;8450;52.654;10.326;2023-04-03T10:51:11;9.50;99.90
16674;DHT22;8450;52.654;10.326;2023-04-03T10:59:35;9.00;99.90
16674;DHT22;8450;52.654;10.326;2023-04-03T11:02:28;8.90;99.90
16674;DHT22;8450;52.654;10.326;2023-04-03T11:05:02;8.90;99.90
16674;DHT22;8450;52.654;10.326;2023-04-03T11:07:34;8.80;99.90
16674;DHT22;8450;52.654;10.326;2023-04-03T11:10:10;8.70;99.90
16674;DHT22;8450;52.654;10.326;2023-04-03T11:13:11;8.30;99.90
16674;DHT22;8450;52.654;10.326;2023-04-03T11:15:38;8.20;99.90
16674;DHT22;8450;52.654;10.326;2023-04-03T11:18:08;8.00;99.90
16674;DHT22;8450;52.654;10.326;2023-04-03T11:20:35;8.10;99.90
16674;DHT22;8450;52.654;10.326;2023-04-03T11:23:21;8.30;99.90
16674;DHT22;8450;52.654;10.326;2023-04-03T11:25:53;8.40;99.90
16674;DHT22;8450;52.654;10.326;2023-04-03T11:28:19;7.90;99.90
16674;DHT22;8450;52.654;10.326;2023-04-03T11:33:52;7.90;99.90
16674;DHT22;8450;52.654;10.326;2023-04-03T11:36:26;7.80;99.90
16674;DHT22;8450;52.654;10.326;2023-04-03T11:38:57;7.60;99.90
16674;DHT22;8450;52.654;10.326;2023-04-03T11:41:28;7.90;99.90
16674;DHT22;8450;52.654;10.326;2023-04-03T11:44:03;7.80;99.90
16674;DHT22;8450;52.654;10.326;2023-04-03T11:46:49;8.20;99.90
16674;DHT22;8450;52.654;10.326;2023-04-03T12:13:40;10.10;99.90
16674;DHT22;8450;52.654;10.326;2023-04-03T12:16:07;10.50;99.90
16674;DHT22;8450;52.654;10.326;2023-04-03T12:26:51;10.90;99.90
16674;DHT22;8450;52.654;10.326;2023-04-03T12:29:39;11.10;99.90
16674;DHT22;8450;52.654;10.326;2023-04-03T12:32:31;11.30;99.90
16674;DHT22;8450;52.654;10.326;2023-04-03T12:35:24;11.20;99.90
16674;DHT22;8450;52.654;10.326;2023-04-03T12:38:37;10.90;99.90
16674;DHT22;8450;52.654;10.326;2023-04-03T12:41:26;10.50;99.90
16674;DHT22;8450;52.654;10.326;2023-04-03T12:44:07;10.80;99.90
16674;DHT22;8450;52.654;10.326;2023-04-03T12:46:48;10.70;99.90
16674;DHT22;8450;52.654;10.326;2023-04-03T12:49:37;10.70;99.90
16674;DHT22;8450;52.654;10.326;2023-04-03T12:52:16;10.80;99.90
16674;DHT22;8450;52.654;10.326;2023-04-03T12:54:42;10.40;99.90
16674;DHT22;8450;52.654;10.326;2023-04-03T12:57:20;10.20;99.90
16674;DHT22;8450;52.654;10.326;2023-04-03T12:59:47;10.20;99.90
16674;DHT22;8450;52.654;10.326;2023-04-03T13:02:29;10.30;99.90
16674;DHT22;8450;52.654;10.326;2023-04-03T13:04:58;10.30;99.90
16674;DHT22;8450;52.654;10.326;2023-04-03T13:07:33;10.50;99.90
16674;DHT22;8450;52.654;10.326;2023-04-03T13:10:20;10.50;99.90
16674;DHT22;8450;52.654;10.326;2023-04-03T13:12:48;10.30;99.90
16674;DHT22;8450;52.654;10.326;2023-04-03T13:15:26;10.20;99.90
16674;DHT22;8450;52.654;10.326;2023-04-03T13:17:53;10.40;99.90
16674;DHT22;8450;52.654;10.326;2023-04-03T13:20:28;10.70;99.90
16674;DHT22;8450;52.654;10.326;2023-04-03T13:23:01;11.10;99.90
16674;DHT22;8450;52.654;10.326;2023-04-03T13:25:30;11.20;99.90
16674;DHT22;8450;52.654;10.326;2023-04-03T13:27:58;11.40;99.90
16674;DHT22;8450;52.654;10.326;2023-04-03T13:30:34;11.40;99.90
16674;DHT22;8450;52.654;10.326;2023-04-03T13:33:05;11.10;99.90
16674;DHT22;8450;52.654;10.326;2023-04-03T13:35:37;10.90;99.90
16674;DHT22;8450;52.654;10.326;2023-04-03T13:40:54;10.50;99.90
16674;DHT22;8450;52.654;10.326;2023-04-03T13:43:25;10.50;99.90
16674;DHT22;8450;52.654;10.326;2023-04-03T13:48:45;10.30;99.90
16674;DHT22;8450;52.654;10.326;2023-04-03T13:56:35;9.60;99.90
16674;DHT22;8450;52.654;10.326;2023-04-03T13:59:24;9.60;99.90
16674;DHT22;8450;52.654;10.326;2023-04-03T14:04:30;9.80;99.90
16674;DHT22;8450;52.654;10.326;2023-04-03T14:06:57;10.10;99.90
16674;DHT22;8450;52.654;10.326;2023-04-03T14:09:25;10.20;99.90
16674;DHT22;8450;52.654;10.326;2023-04-03T14:11:54;10.40;99.90
16674;DHT22;8450;52.654;10.326;2023-04-03T14:14:23;10.10;99.90
16674;DHT22;8450;52.654;10.326;2023-04-03T14:16:55;10.20;99.90
16674;DHT22;8450;52.654;10.326;2023-04-03T14:19:32;10.10;99.90
16674;DHT22;8450;52.654;10.326;2023-04-03T14:21:59;10.30;99.90
16674;DHT22;8450;52.654;10.326;2023-04-03T14:24:25;10.40;99.90
16674;DHT22;8450;52.654;10.326;2023-04-03T14:26:52;10.30;99.90
16674;DHT22;8450;52.654;10.326;2023-04-03T14:29:19;10.30;99.90
16674;DHT22;8450;52.654;10.326;2023-04-03T14:31:46;10.10;99.90
16674;DHT22;8450;52.654;10.326;2023-04-03T14:34:13;10.10;99.90
16674;DHT22;8450;52.654;10.326;2023-04-03T14:36:40;10.10;99.90
16674;DHT22;8450;52.654;10.326;2023-04-03T14:39:07;10.30;99.90
16674;DHT22;8450;52.654;10.326;2023-04-03T14:41:35;10.50;99.90
16674;DHT22;8450;52.654;10.326;2023-04-03T14:44:01;10.60;99.90
16674;DHT22;8450;52.654;10.326;2023-04-03T14:46:31;10.40;99.90
16674;DHT22;8450;52.654;10.326;2023-04-03T14:48:58;10.10;99.90
16674;DHT22;8450;52.654;10.326;2023-04-03T14:51:24;9.90;99.90
16674;DHT22;8450;52.654;10.326;2023-04-03T14:53:50;10.00;99.90
16674;DHT22;8450;52.654;10.326;2023-04-03T14:56:23;10.10;99.90
16674;DHT22;8450;52.654;10.326;2023-04-03T14:58:54;10.10;99.90
16674;DHT22;8450;52.654;10.326;2023-04-03T15:01:20;10.10;99.90
16674;DHT22;8450;52.654;10.326;2023-04-03T15:03:46;10.10;99.90
16674;DHT22;8450;52.654;10.326;2023-04-03T15:06:13;10.10;99.90
16674;DHT22;8450;52.654;10.326;2023-04-03T15:08:39;10.00;99.90
16674;DHT22;8450;52.654;10.326;2023-04-03T15:11:07;9.90;99.90
16674;DHT22;8450;52.654;10.326;2023-04-03T15:13:33;10.00;99.90
16674;DHT22;8450;52.654;10.326;2023-04-03T15:15:59;9.90;99.90
16674;DHT22;8450;52.654;10.326;2023-04-03T15:18:27;9.80;99.90
16674;DHT22;8450;52.654;10.326;2023-04-03T15:20:53;10.00;99.90
16674;DHT22;8450;52.654;10.326;2023-04-03T15:23:20;9.90;99.90
16674;DHT22;8450;52.654;10.326;2023-04-03T15:25:52;9.90;99.90
16674;DHT22;8450;52.654;10.326;2023-04-03T15:28:37;9.90;99.90
16674;DHT22;8450;52.654;10.326;2023-04-03T15:31:04;9.60;99.90
16674;DHT22;8450;52.654;10.326;2023-04-03T15:33:30;9.50;99.90
16674;DHT22;8450;52.654;10.326;2023-04-03T15:35:56;9.50;99.90
16674;DHT22;8450;52.654;10.326;2023-04-03T15:38:22;9.60;99.90
16674;DHT22;8450;52.654;10.326;2023-04-03T15:40:47;9.40;99.90
16674;DHT22;8450;52.654;10.326;2023-04-03T15:43:14;9.30;99.90
16674;DHT22;8450;52.654;10.326;2023-04-03T15:45:40;9.30;99.90
16674;DHT22;8450;52.654;10.326;2023-04-03T15:48:06;9.40;99.90
16674;DHT22;8450;52.654;10.326;2023-04-03T15:50:34;9.30;99.90
16674;DHT22;8450;52.654;10.326;2023-04-03T15:52:59;9.20;99.90
16674;DHT22;8450;52.654;10.326;2023-04-03T15:55:28;9.10;99.90
16674;DHT22;8450;52.654;10.326;2023-04-03T15:57:54;9.00;99.90
16674;DHT22;8450;52.654;10.326;2023-04-03T16:00:22;9.00;99.90
16674;DHT22;8450;52.654;10.326;2023-04-03T16:02:52;9.00;99.90
16674;DHT22;8450;52.654;10.326;2023-04-03T16:05:18;8.90;99.90
16674;DHT22;8450;52.654;10.326;2023-04-03T16:07:45;8.80;99.90
16674;DHT22;8450;52.654;10.326;2023-04-03T16:10:12;8.80;99.90
16674;DHT22;8450;52.654;10.326;2023-04-03T16:12:37;8.80;99.90
16674;DHT22;8450;52.654;10.326;2023-04-03T16:15:03;8.70;99.90
16674;DHT22;8450;52.654;10.326;2023-04-03T16:17:29;8.60;99.90
16674;DHT22;8450;52.654;10.326;2023-04-03T16:19:55;8.50;99.90
16674;DHT22;8450;52.654;10.326;2023-04-03T16:22:22;8.50;99.90
16674;DHT22;8450;52.654;10.326;2023-04-03T16:24:49;8.40;99.90
16674;DHT22;8450;52.654;10.326;2023-04-03T16:27:15;8.40;99.90
16674;DHT22;8450;52.654;10.326;2023-04-03T16:29:41;8.30;99.90
16674;DHT22;8450;52.654;10.326;2023-04-03T16:32:06;8.30;99.90
16674;DHT22;8450;52.654;10.326;2023-04-03T16:34:32;8.20;99.90
16674;DHT22;8450;52.654;10.326;2023-04-03T16:36:59;8.10;99.90
16674;DHT22;8450;52.654;10.326;2023-04-03T16:39:25;7.90;99.90
16674;DHT22;8450;52.654;10.326;2023-04-03T16:41:50;7.90;99.90
16674;DHT22;8450;52.654;10.326;2023-04-03T16:44:16;7.90;99.90
16674;DHT22;8450;52.654;10.326;2023-04-03T16:46:42;7.80;99.90
16674;DHT22;8450;52.654;10.326;2023-04-03T16:49:07;7.80;99.90
16674;DHT22;8450;52.654;10.326;2023-04-03T16:51:33;7.80;99.90
16674;DHT22;8450;52.654;10.326;2023-04-03T16:53:59;7.70;99.90
16674;DHT22;8450;52.654;10.326;2023-04-03T16:56:25;7.70;99.90
16674;DHT22;8450;52.654;10.326;2023-04-03T16:58:52;7.70;99.90
16674;DHT22;8450;52.654;10.326;2023-04-03T17:01:20;7.60;99.90
16674;DHT22;8450;52.654;10.326;2023-04-03T17:03:45;7.50;99.90
16674;DHT22;8450;52.654;10.326;2023-04-03T17:06:13;7.50;99.90
16674;DHT22;8450;52.654;10.326;2023-04-03T17:08:46;7.40;99.90
16674;DHT22;8450;52.654;10.326;2023-04-03T17:11:25;7.30;99.90
16674;DHT22;8450;52.654;10.326;2023-04-03T17:13:51;7.20;99.90
16674;DHT22;8450;52.654;10.326;2023-04-03T17:16:17;7.20;99.90
16674;DHT22;8450;52.654;10.326;2023-04-03T17:18:43;7.20;99.90
